sensor_id;sensor_type;location;lat;lon;timestamp;pressure;altitude;pressure_sealevel;temperature;humidity
67840;BME280;54636;51.684;5.142;2023-03-04T00:01:10;102728.25;;;5.15;88.46
67840;BME280;54636;51.684;5.142;2023-03-04T00:03:36;102729.44;;;5.14;88.57
67840;BME280;54636;51.684;5.142;2023-03-04T00:06:01;102730.19;;;5.15;89.04
67840;BME280;54636;51.684;5.142;2023-03-04T00:08:27;102730.19;;;5.15;89.04
67840;BME280;54636;51.684;5.142;2023-03-04T00:10:52;102723.69;;;5.09;89.38
67840;BME280;54636;51.684;5.142;2023-03-04T00:13:18;102732.13;;;5.14;89.37
67840;BME280;54636;51.684;5.142;2023-03-04T00:15:46;102732.16;;;5.11;90.25
67840;BME280;54636;51.684;5.142;2023-03-04T00:18:11;102729.06;;;5.12;89.75
67840;BME280;54636;51.684;5.142;2023-03-04T00:20:37;102726.75;;;5.11;89.70
67840;BME280;54636;51.684;5.142;2023-03-04T00:23:02;102728.28;;;5.12;90.30
67840;BME280;54636;51.684;5.142;2023-03-04T00:25:27;102724.84;;;5.11;90.43
67840;BME280;54636;51.684;5.142;2023-03-04T00:27:53;102724.06;;;5.11;90.76
67840;BME280;54636;51.684;5.142;2023-03-04T00:30:18;102736.38;;;5.12;90.59
67840;BME280;54636;51.684;5.142;2023-03-04T00:32:44;102725.63;;;5.08;90.38
67840;BME280;54636;51.684;5.142;2023-03-04T00:35:09;102728.31;;;5.08;91.02
67840;BME280;54636;51.684;5.142;2023-03-04T00:37:34;102731.78;;;5.09;90.85
67840;BME280;54636;51.684;5.142;2023-03-04T00:40:00;102730.25;;;5.08;90.41
67840;BME280;54636;51.684;5.142;2023-03-04T00:42:25;102718.69;;;5.11;90.26
67840;BME280;54636;51.684;5.142;2023-03-04T00:44:51;102727.56;;;5.08;90.03
67840;BME280;54636;51.684;5.142;2023-03-04T00:47:16;102728.72;;;5.07;89.90
67840;BME280;54636;51.684;5.142;2023-03-04T00:49:41;102726.78;;;5.07;90.56
67840;BME280;54636;51.684;5.142;2023-03-04T00:52:07;102720.63;;;5.07;90.28
67840;BME280;54636;51.684;5.142;2023-03-04T00:54:32;102724.09;;;5.07;90.14
67840;BME280;54636;51.684;5.142;2023-03-04T00:56:58;102717.97;;;5.03;89.55
67840;BME280;54636;51.684;5.142;2023-03-04T00:59:23;102728.72;;;5.07;89.19
67840;BME280;54636;51.684;5.142;2023-03-04T01:01:49;102728.72;;;5.07;89.55
67840;BME280;54636;51.684;5.142;2023-03-04T01:04:14;102730.25;;;5.08;88.88
67840;BME280;54636;51.684;5.142;2023-03-04T01:06:40;102724.88;;;5.04;88.86
67840;BME280;54636;51.684;5.142;2023-03-04T01:09:05;102723.72;;;5.05;88.42
67840;BME280;54636;51.684;5.142;2023-03-04T01:11:31;102736.78;;;5.07;87.70
67840;BME280;54636;51.684;5.142;2023-03-04T01:13:56;102725.66;;;5.05;88.21
67840;BME280;54636;51.684;5.142;2023-03-04T01:16:22;102728.34;;;5.05;88.37
67840;BME280;54636;51.684;5.142;2023-03-04T01:18:47;102733.72;;;5.05;89.39
67840;BME280;54636;51.684;5.142;2023-03-04T01:21:12;102732.19;;;5.04;88.98
67840;BME280;54636;51.684;5.142;2023-03-04T01:23:38;102730.66;;;5.03;89.27
67840;BME280;54636;51.684;5.142;2023-03-04T01:26:03;102730.25;;;5.04;89.66
67840;BME280;54636;51.684;5.142;2023-03-04T01:28:29;102721.03;;;5.02;90.23
67840;BME280;54636;51.684;5.142;2023-03-04T01:30:54;102723.75;;;5.02;90.21
67840;BME280;54636;51.684;5.142;2023-03-04T01:33:20;102724.88;;;5.04;90.11
67840;BME280;54636;51.684;5.142;2023-03-04T01:35:45;102716.03;;;5.04;90.44
67840;BME280;54636;51.684;5.142;2023-03-04T01:38:10;102717.16;;;5.06;90.85
67840;BME280;54636;51.684;5.142;2023-03-04T01:40:37;102712.56;;;5.03;90.55
67840;BME280;54636;51.684;5.142;2023-03-04T01:43:03;102707.97;;;5.00;91.04
67840;BME280;54636;51.684;5.142;2023-03-04T01:45:30;102708.38;;;4.99;91.43
67840;BME280;54636;51.684;5.142;2023-03-04T01:47:56;102704.50;;;5.00;91.72
67840;BME280;54636;51.684;5.142;2023-03-04T01:50:31;102694.53;;;4.96;91.50
67840;BME280;54636;51.684;5.142;2023-03-04T01:52:57;102691.06;;;5.00;90.78
67840;BME280;54636;51.684;5.142;2023-03-04T01:55:23;102688.34;;;5.00;90.89
67840;BME280;54636;51.684;5.142;2023-03-04T01:57:50;102687.59;;;4.99;90.32
67840;BME280;54636;51.684;5.142;2023-03-04T02:02:49;102687.59;;;4.99;91.36
67840;BME280;54636;51.684;5.142;2023-03-04T02:05:15;102680.66;;;4.98;92.00
67840;BME280;54636;51.684;5.142;2023-03-04T02:07:41;102679.13;;;4.97;91.56
67840;BME280;54636;51.684;5.142;2023-03-04T02:10:08;102682.59;;;4.97;91.88
67840;BME280;54636;51.684;5.142;2023-03-04T02:12:33;102675.28;;;4.98;92.50
67840;BME280;54636;51.684;5.142;2023-03-04T02:14:59;102678.38;;;4.96;92.06
67840;BME280;54636;51.684;5.142;2023-03-04T02:17:25;102669.16;;;4.94;92.05
67840;BME280;54636;51.684;5.142;2023-03-04T02:22:35;102676.84;;;4.95;91.86
67840;BME280;54636;51.684;5.142;2023-03-04T02:25:12;102665.72;;;4.90;92.11
67840;BME280;54636;51.684;5.142;2023-03-04T02:27:41;102673.00;;;4.93;91.67
67840;BME280;54636;51.684;5.142;2023-03-04T02:30:08;102666.50;;;4.90;91.37
67840;BME280;54636;51.684;5.142;2023-03-04T02:32:34;102669.16;;;4.94;90.91
67840;BME280;54636;51.684;5.142;2023-03-04T02:34:59;102666.47;;;4.94;90.39
67840;BME280;54636;51.684;5.142;2023-03-04T02:37:25;102661.47;;;4.92;90.81
67840;BME280;54636;51.684;5.142;2023-03-04T02:39:50;102662.63;;;4.91;90.83
67840;BME280;54636;51.684;5.142;2023-03-04T02:42:16;102661.88;;;4.91;90.98
67840;BME280;54636;51.684;5.142;2023-03-04T02:44:44;102655.31;;;4.92;89.68
67840;BME280;54636;51.684;5.142;2023-03-04T02:47:14;102658.03;;;4.92;88.67
67840;BME280;54636;51.684;5.142;2023-03-04T02:49:41;102654.91;;;4.97;88.50
67840;BME280;54636;51.684;5.142;2023-03-04T02:52:18;102652.22;;;4.97;88.06
67840;BME280;54636;51.684;5.142;2023-03-04T02:54:44;102647.63;;;4.94;88.35
67840;BME280;54636;51.684;5.142;2023-03-04T02:57:11;102649.53;;;4.93;88.86
67840;BME280;54636;51.684;5.142;2023-03-04T02:59:38;102651.47;;;4.93;89.41
67840;BME280;54636;51.684;5.142;2023-03-04T03:02:05;102638.41;;;4.91;89.76
67840;BME280;54636;51.684;5.142;2023-03-04T03:04:31;102646.09;;;4.89;89.71
67840;BME280;54636;51.684;5.142;2023-03-04T03:06:57;102643.78;;;4.91;90.26
67840;BME280;54636;51.684;5.142;2023-03-04T03:09:23;102645.31;;;4.92;90.19
67840;BME280;54636;51.684;5.142;2023-03-04T03:11:48;102623.09;;;4.81;90.82
67840;BME280;54636;51.684;5.142;2023-03-04T03:14:14;102632.25;;;4.91;90.17
67840;BME280;54636;51.684;5.142;2023-03-04T03:16:39;102637.63;;;4.91;89.67
67840;BME280;54636;51.684;5.142;2023-03-04T03:19:05;102632.66;;;4.89;89.03
67840;BME280;54636;51.684;5.142;2023-03-04T03:21:30;102636.88;;;4.90;89.50
67840;BME280;54636;51.684;5.142;2023-03-04T03:23:56;102634.19;;;4.90;89.20
67840;BME280;54636;51.684;5.142;2023-03-04T03:26:21;102640.34;;;4.91;90.35
67840;BME280;54636;51.684;5.142;2023-03-04T03:28:47;102629.97;;;4.89;90.84
67840;BME280;54636;51.684;5.142;2023-03-04T03:31:13;102629.19;;;4.89;89.83
67840;BME280;54636;51.684;5.142;2023-03-04T03:33:39;102633.03;;;4.88;89.80
67840;BME280;54636;51.684;5.142;2023-03-04T03:36:04;102633.03;;;4.88;90.12
67840;BME280;54636;51.684;5.142;2023-03-04T03:38:30;102631.50;;;4.87;90.21
67840;BME280;54636;51.684;5.142;2023-03-04T03:40:55;102626.16;;;4.83;89.46
67840;BME280;54636;51.684;5.142;2023-03-04T03:43:21;102628.06;;;4.86;89.12
67840;BME280;54636;51.684;5.142;2023-03-04T03:45:46;102627.66;;;4.88;88.40
67840;BME280;54636;51.684;5.142;2023-03-04T03:48:12;102622.66;;;4.86;87.90
67840;BME280;54636;51.684;5.142;2023-03-04T03:50:37;102624.94;;;4.91;87.29
67840;BME280;54636;51.684;5.142;2023-03-04T03:53:03;102624.97;;;4.88;86.88
67840;BME280;54636;51.684;5.142;2023-03-04T03:55:28;102619.94;;;4.90;86.96
67840;BME280;54636;51.684;5.142;2023-03-04T03:57:54;102630.34;;;4.88;88.14
67840;BME280;54636;51.684;5.142;2023-03-04T04:00:19;102628.06;;;4.86;88.77
67840;BME280;54636;51.684;5.142;2023-03-04T04:02:45;102628.81;;;4.87;88.49
67840;BME280;54636;51.684;5.142;2023-03-04T04:05:11;102626.88;;;4.87;88.00
67840;BME280;54636;51.684;5.142;2023-03-04T04:07:37;102635.75;;;4.88;88.09
67840;BME280;54636;51.684;5.142;2023-03-04T04:10:04;102624.66;;;4.75;88.45
67840;BME280;54636;51.684;5.142;2023-03-04T04:12:29;102607.00;;;4.71;88.03
67840;BME280;54636;51.684;5.142;2023-03-04T04:14:55;102640.75;;;4.86;87.30
67840;BME280;54636;51.684;5.142;2023-03-04T04:17:20;102633.06;;;4.84;87.35
67840;BME280;54636;51.684;5.142;2023-03-04T04:19:46;102634.59;;;4.85;87.72
67840;BME280;54636;51.684;5.142;2023-03-04T04:22:17;102634.19;;;4.87;87.48
67840;BME280;54636;51.684;5.142;2023-03-04T04:24:42;102598.63;;;4.61;87.36
67840;BME280;54636;51.684;5.142;2023-03-04T04:27:08;102627.72;;;4.81;88.20
67840;BME280;54636;51.684;5.142;2023-03-04T04:29:34;102628.47;;;4.81;87.55
67840;BME280;54636;51.684;5.142;2023-03-04T04:31:59;102638.09;;;4.82;88.48
67840;BME280;54636;51.684;5.142;2023-03-04T04:34:25;102637.31;;;4.82;87.79
67840;BME280;54636;51.684;5.142;2023-03-04T04:36:51;102636.16;;;4.83;88.14
67840;BME280;54636;51.684;5.142;2023-03-04T04:39:16;102639.63;;;4.80;87.96
67840;BME280;54636;51.684;5.142;2023-03-04T04:41:42;102636.94;;;4.80;88.21
67840;BME280;54636;51.684;5.142;2023-03-04T04:44:09;102641.97;;;4.78;88.52
67840;BME280;54636;51.684;5.142;2023-03-04T04:46:37;102634.28;;;4.76;88.64
67840;BME280;54636;51.684;5.142;2023-03-04T04:49:04;102638.09;;;4.79;88.76
67840;BME280;54636;51.684;5.142;2023-03-04T04:51:29;102617.41;;;4.69;88.67
67840;BME280;54636;51.684;5.142;2023-03-04T04:53:55;102637.34;;;4.78;89.01
67840;BME280;54636;51.684;5.142;2023-03-04T04:56:23;102636.94;;;4.80;89.25
67840;BME280;54636;51.684;5.142;2023-03-04T04:58:51;102643.50;;;4.79;89.86
67840;BME280;54636;51.684;5.142;2023-03-04T05:01:17;102638.09;;;4.79;89.51
67840;BME280;54636;51.684;5.142;2023-03-04T05:03:42;102637.34;;;4.78;89.28
67840;BME280;54636;51.684;5.142;2023-03-04T05:06:09;102646.94;;;4.79;90.20
67840;BME280;54636;51.684;5.142;2023-03-04T05:08:35;102631.97;;;4.75;90.09
67840;BME280;54636;51.684;5.142;2023-03-04T05:11:01;102633.84;;;4.81;89.44
67840;BME280;54636;51.684;5.142;2023-03-04T05:13:27;102635.78;;;4.81;89.47
67840;BME280;54636;51.684;5.142;2023-03-04T05:15:54;102640.41;;;4.80;90.25
67840;BME280;54636;51.684;5.142;2023-03-04T05:18:22;102630.81;;;4.76;89.71
67840;BME280;54636;51.684;5.142;2023-03-04T05:20:59;102641.16;;;4.81;90.16
67840;BME280;54636;51.684;5.142;2023-03-04T05:23:26;102634.25;;;4.80;90.67
67840;BME280;54636;51.684;5.142;2023-03-04T05:25:52;102638.47;;;4.81;90.43
67840;BME280;54636;51.684;5.142;2023-03-04T05:28:18;102630.44;;;4.77;90.28
67840;BME280;54636;51.684;5.142;2023-03-04T05:30:44;102638.09;;;4.79;90.97
67840;BME280;54636;51.684;5.142;2023-03-04T05:33:12;102634.25;;;4.80;90.85
67840;BME280;54636;51.684;5.142;2023-03-04T05:35:39;102634.22;;;4.83;91.06
67840;BME280;54636;51.684;5.142;2023-03-04T05:38:06;102633.13;;;4.77;91.12
67840;BME280;54636;51.684;5.142;2023-03-04T05:40:32;102640.81;;;4.79;91.38
67840;BME280;54636;51.684;5.142;2023-03-04T05:42:57;102645.38;;;4.82;92.29
67840;BME280;54636;51.684;5.142;2023-03-04T05:45:24;102643.88;;;4.77;92.20
67840;BME280;54636;51.684;5.142;2023-03-04T05:47:50;102650.03;;;4.78;92.58
67840;BME280;54636;51.684;5.142;2023-03-04T05:50:15;102644.69;;;4.74;92.25
67840;BME280;54636;51.684;5.142;2023-03-04T05:52:40;102650.84;;;4.71;92.78
67840;BME280;54636;51.684;5.142;2023-03-04T05:55:06;102647.00;;;4.72;93.40
67840;BME280;54636;51.684;5.142;2023-03-04T05:57:32;102659.66;;;4.75;93.23
67840;BME280;54636;51.684;5.142;2023-03-04T05:59:57;102654.69;;;4.74;94.39
67840;BME280;54636;51.684;5.142;2023-03-04T06:02:23;102654.72;;;4.67;96.06
67840;BME280;54636;51.684;5.142;2023-03-04T06:04:48;102654.38;;;4.61;97.87
67840;BME280;54636;51.684;5.142;2023-03-04T06:07:14;102651.75;;;4.50;98.94
67840;BME280;54636;51.684;5.142;2023-03-04T06:09:39;102653.69;;;4.50;99.68
67840;BME280;54636;51.684;5.142;2023-03-04T06:12:05;102657.16;;;4.50;99.55
67840;BME280;54636;51.684;5.142;2023-03-04T06:14:30;102647.53;;;4.49;100.00
67840;BME280;54636;51.684;5.142;2023-03-04T06:16:56;102646.00;;;4.52;99.23
67840;BME280;54636;51.684;5.142;2023-03-04T06:19:21;102652.47;;;4.58;99.72
67840;BME280;54636;51.684;5.142;2023-03-04T06:21:46;102640.97;;;4.54;99.68
67840;BME280;54636;51.684;5.142;2023-03-04T06:24:12;102649.00;;;4.57;100.00
67840;BME280;54636;51.684;5.142;2023-03-04T06:26:37;102651.31;;;4.59;100.00
67840;BME280;54636;51.684;5.142;2023-03-04T06:29:05;102645.91;;;4.59;100.00
67840;BME280;54636;51.684;5.142;2023-03-04T06:31:30;102639.38;;;4.60;100.00
67840;BME280;54636;51.684;5.142;2023-03-04T06:33:56;102655.91;;;4.62;99.77
67840;BME280;54636;51.684;5.142;2023-03-04T06:36:21;102652.03;;;4.63;99.92
67840;BME280;54636;51.684;5.142;2023-03-04T06:38:47;102654.34;;;4.64;99.40
67840;BME280;54636;51.684;5.142;2023-03-04T06:41:12;102651.25;;;4.66;99.94
67840;BME280;54636;51.684;5.142;2023-03-04T06:43:38;102654.31;;;4.68;99.18
67840;BME280;54636;51.684;5.142;2023-03-04T06:46:05;102652.78;;;4.67;99.08
67840;BME280;54636;51.684;5.142;2023-03-04T06:48:31;102653.16;;;4.69;98.94
67840;BME280;54636;51.684;5.142;2023-03-04T06:50:56;102661.22;;;4.73;99.13
67840;BME280;54636;51.684;5.142;2023-03-04T06:53:22;102655.44;;;4.74;98.44
67840;BME280;54636;51.684;5.142;2023-03-04T06:55:47;102658.13;;;4.74;99.20
67840;BME280;54636;51.684;5.142;2023-03-04T06:58:14;102657.75;;;4.76;98.32
67840;BME280;54636;51.684;5.142;2023-03-04T07:00:42;102661.97;;;4.77;99.20
67840;BME280;54636;51.684;5.142;2023-03-04T07:03:08;102666.16;;;4.81;98.66
67840;BME280;54636;51.684;5.142;2023-03-04T07:05:33;102665.00;;;4.82;98.73
67840;BME280;54636;51.684;5.142;2023-03-04T07:07:58;102664.97;;;4.86;99.06
67840;BME280;54636;51.684;5.142;2023-03-04T07:10:24;102668.03;;;4.88;99.26
67840;BME280;54636;51.684;5.142;2023-03-04T07:12:49;102665.69;;;4.97;98.85
67840;BME280;54636;51.684;5.142;2023-03-04T07:15:14;102674.16;;;4.92;98.93
67840;BME280;54636;51.684;5.142;2023-03-04T07:17:40;102679.59;;;4.88;99.37
67840;BME280;54636;51.684;5.142;2023-03-04T07:20:06;102680.00;;;4.83;100.00
67840;BME280;54636;51.684;5.142;2023-03-04T07:22:31;102680.03;;;4.80;100.00
67840;BME280;54636;51.684;5.142;2023-03-04T07:24:57;102678.91;;;4.70;100.00
67840;BME280;54636;51.684;5.142;2023-03-04T07:27:22;102692.00;;;4.72;100.00
67840;BME280;54636;51.684;5.142;2023-03-04T07:29:48;102690.09;;;4.69;100.00
67840;BME280;54636;51.684;5.142;2023-03-04T07:32:13;102689.28;;;4.75;100.00
67840;BME280;54636;51.684;5.142;2023-03-04T07:34:39;102698.13;;;4.76;100.00
67840;BME280;54636;51.684;5.142;2023-03-04T07:37:04;102691.94;;;4.79;100.00
67840;BME280;54636;51.684;5.142;2023-03-04T07:39:29;102695.75;;;4.85;100.00
67840;BME280;54636;51.684;5.142;2023-03-04T07:41:55;102698.41;;;4.92;100.00
67840;BME280;54636;51.684;5.142;2023-03-04T07:44:20;102699.91;;;5.00;100.00
67840;BME280;54636;51.684;5.142;2023-03-04T07:46:46;102699.50;;;5.02;100.00
67840;BME280;54636;51.684;5.142;2023-03-04T07:49:12;102707.91;;;5.11;100.00
67840;BME280;54636;51.684;5.142;2023-03-04T07:51:38;102707.09;;;5.17;100.00
67840;BME280;54636;51.684;5.142;2023-03-04T07:54:03;102705.06;;;5.25;100.00
67840;BME280;54636;51.684;5.142;2023-03-04T07:56:31;102712.28;;;5.39;100.00
67840;BME280;54636;51.684;5.142;2023-03-04T07:58:58;102707.56;;;5.50;100.00
67840;BME280;54636;51.684;5.142;2023-03-04T08:01:26;102708.25;;;5.61;100.00
67840;BME280;54636;51.684;5.142;2023-03-04T08:03:52;102702.41;;;5.70;99.50
67840;BME280;54636;51.684;5.142;2023-03-04T08:06:18;102707.75;;;5.73;100.00
67840;BME280;54636;51.684;5.142;2023-03-04T08:08:45;102714.13;;;5.86;100.00
67840;BME280;54636;51.684;5.142;2023-03-04T08:11:14;102707.91;;;5.97;98.91
67840;BME280;54636;51.684;5.142;2023-03-04T08:13:40;102709.72;;;6.07;98.39
67840;BME280;54636;51.684;5.142;2023-03-04T08:16:06;102707.38;;;6.09;98.05
67840;BME280;54636;51.684;5.142;2023-03-04T08:18:32;102708.06;;;6.16;98.36
67840;BME280;54636;51.684;5.142;2023-03-04T08:20:58;102710.72;;;6.20;97.74
67840;BME280;54636;51.684;5.142;2023-03-04T08:23:23;102717.97;;;6.26;97.39
67840;BME280;54636;51.684;5.142;2023-03-04T08:25:49;102710.22;;;6.32;96.05
67840;BME280;54636;51.684;5.142;2023-03-04T08:28:15;102712.94;;;6.28;95.66
67840;BME280;54636;51.684;5.142;2023-03-04T08:30:41;102722.41;;;6.44;95.77
67840;BME280;54636;51.684;5.142;2023-03-04T08:33:06;102723.31;;;6.60;94.03
67840;BME280;54636;51.684;5.142;2023-03-04T08:35:36;102724.72;;;6.72;94.13
67840;BME280;54636;51.684;5.142;2023-03-04T08:38:01;102726.72;;;6.95;93.27
67840;BME280;54636;51.684;5.142;2023-03-04T08:40:27;102724.28;;;7.04;91.05
67840;BME280;54636;51.684;5.142;2023-03-04T08:42:52;102717.28;;;7.07;90.84
67840;BME280;54636;51.684;5.142;2023-03-04T08:45:18;102718.63;;;7.18;90.04
67840;BME280;54636;51.684;5.142;2023-03-04T08:47:43;102708.16;;;7.20;89.11
67840;BME280;54636;51.684;5.142;2023-03-04T08:50:09;102712.03;;;7.19;88.75
67840;BME280;54636;51.684;5.142;2023-03-04T08:52:34;102710.59;;;7.15;88.65
67840;BME280;54636;51.684;5.142;2023-03-04T08:55:00;102714.16;;;7.32;89.30
67840;BME280;54636;51.684;5.142;2023-03-04T08:57:25;102712.06;;;7.43;88.41
67840;BME280;54636;51.684;5.142;2023-03-04T08:59:51;102707.06;;;7.41;88.14
67840;BME280;54636;51.684;5.142;2023-03-04T09:02:16;102708.13;;;7.47;87.88
67840;BME280;54636;51.684;5.142;2023-03-04T09:04:41;102706.53;;;7.50;87.93
67840;BME280;54636;51.684;5.142;2023-03-04T09:07:07;102704.06;;;7.59;87.29
67840;BME280;54636;51.684;5.142;2023-03-04T09:09:33;102703.94;;;7.66;87.11
67840;BME280;54636;51.684;5.142;2023-03-04T09:11:59;102710.34;;;7.76;87.35
67840;BME280;54636;51.684;5.142;2023-03-04T09:14:24;102703.94;;;7.86;86.19
67840;BME280;54636;51.684;5.142;2023-03-04T09:16:50;102698.34;;;7.77;85.26
67840;BME280;54636;51.684;5.142;2023-03-04T09:19:15;102700.75;;;7.71;86.49
67840;BME280;54636;51.684;5.142;2023-03-04T09:21:41;102686.81;;;7.92;86.89
67840;BME280;54636;51.684;5.142;2023-03-04T09:24:06;102694.94;;;8.12;85.70
67840;BME280;54636;51.684;5.142;2023-03-04T09:26:31;102686.66;;;8.19;84.95
67840;BME280;54636;51.684;5.142;2023-03-04T09:28:59;102689.78;;;8.18;85.10
67840;BME280;54636;51.684;5.142;2023-03-04T09:31:26;102692.78;;;8.04;86.09
67840;BME280;54636;51.684;5.142;2023-03-04T09:33:53;102696.19;;;8.08;85.57
67840;BME280;54636;51.684;5.142;2023-03-04T09:36:19;102690.63;;;8.15;85.84
67840;BME280;54636;51.684;5.142;2023-03-04T09:38:45;102675.78;;;8.03;86.38
67840;BME280;54636;51.684;5.142;2023-03-04T09:41:24;102692.09;;;8.19;85.09
67840;BME280;54636;51.684;5.142;2023-03-04T09:43:52;102688.47;;;8.26;84.08
67840;BME280;54636;51.684;5.142;2023-03-04T09:46:43;102692.50;;;8.38;84.28
67840;BME280;54636;51.684;5.142;2023-03-04T09:49:11;102691.50;;;8.48;81.95
67840;BME280;54636;51.684;5.142;2023-03-04T10:02:45;102688.22;;;8.40;83.70
67840;BME280;54636;51.684;5.142;2023-03-04T10:05:19;102690.16;;;8.40;85.11
67840;BME280;54636;51.684;5.142;2023-03-04T10:07:51;102686.50;;;8.46;85.02
67840;BME280;54636;51.684;5.142;2023-03-04T10:10:24;102688.44;;;8.46;84.60
67840;BME280;54636;51.684;5.142;2023-03-04T10:12:52;102700.50;;;8.45;85.37
67840;BME280;54636;51.684;5.142;2023-03-04T10:15:41;102690.91;;;8.40;84.96
67840;BME280;54636;51.684;5.142;2023-03-04T10:18:19;102693.25;;;8.18;85.69
67840;BME280;54636;51.684;5.142;2023-03-04T10:21:00;102690.22;;;7.97;87.93
67840;BME280;54636;51.684;5.142;2023-03-04T10:23:28;102689.22;;;7.87;89.40
67840;BME280;54636;51.684;5.142;2023-03-04T10:25:54;102704.63;;;7.90;90.45
67840;BME280;54636;51.684;5.142;2023-03-04T10:28:27;102700.19;;;8.00;91.05
67840;BME280;54636;51.684;5.142;2023-03-04T10:33:35;102698.69;;;7.99;94.47
67840;BME280;54636;51.684;5.142;2023-03-04T10:38:40;102691.91;;;8.46;92.31
67840;BME280;54636;51.684;5.142;2023-03-04T10:41:19;102686.63;;;8.59;93.39
67840;BME280;54636;51.684;5.142;2023-03-04T10:43:50;102684.66;;;8.43;96.27
67840;BME280;54636;51.684;5.142;2023-03-04T10:46:24;102682.94;;;8.13;97.59
67840;BME280;54636;51.684;5.142;2023-03-04T10:48:52;102679.03;;;7.94;100.00
67840;BME280;54636;51.684;5.142;2023-03-04T10:51:26;102674.38;;;7.95;100.00
67840;BME280;54636;51.684;5.142;2023-03-04T10:56:40;102669.38;;;8.13;100.00
67840;BME280;54636;51.684;5.142;2023-03-04T10:59:47;102667.66;;;8.23;100.00
67840;BME280;54636;51.684;5.142;2023-03-04T11:02:28;102661.41;;;8.26;100.00
67840;BME280;54636;51.684;5.142;2023-03-04T11:05:17;102653.91;;;8.34;100.00
67840;BME280;54636;51.684;5.142;2023-03-04T11:07:54;102654.81;;;8.79;100.00
67840;BME280;54636;51.684;5.142;2023-03-04T11:10:21;102655.13;;;9.30;96.49
67840;BME280;54636;51.684;5.142;2023-03-04T11:13:16;102649.47;;;9.53;92.23
67840;BME280;54636;51.684;5.142;2023-03-04T11:16:03;102640.34;;;9.47;90.74
67840;BME280;54636;51.684;5.142;2023-03-04T11:18:47;102651.22;;;9.15;89.82
67840;BME280;54636;51.684;5.142;2023-03-04T11:21:23;102644.81;;;8.93;91.34
67840;BME280;54636;51.684;5.142;2023-03-04T11:23:59;102639.16;;;8.71;92.39
67840;BME280;54636;51.684;5.142;2023-03-04T11:32:13;102631.69;;;8.22;94.71
67840;BME280;54636;51.684;5.142;2023-03-04T11:38:05;102637.47;;;8.05;95.45
67840;BME280;54636;51.684;5.142;2023-03-04T11:41:01;102635.31;;;7.96;96.12
67840;BME280;54636;51.684;5.142;2023-03-04T11:43:35;102629.78;;;7.83;97.68
67840;BME280;54636;51.684;5.142;2023-03-04T11:48:52;102619.50;;;7.94;98.46
67840;BME280;54636;51.684;5.142;2023-03-04T11:54:00;102611.72;;;8.16;97.55
67840;BME280;54636;51.684;5.142;2023-03-04T11:56:38;102605.19;;;8.50;97.48
67840;BME280;54636;51.684;5.142;2023-03-04T12:02:15;102609.25;;;9.07;94.90
67840;BME280;54636;51.684;5.142;2023-03-04T12:04:49;102603.06;;;9.06;95.26
67840;BME280;54636;51.684;5.142;2023-03-04T12:15:43;102591.66;;;8.66;93.50
67840;BME280;54636;51.684;5.142;2023-03-04T12:41:57;102557.25;;;9.24;91.97
67840;BME280;54636;51.684;5.142;2023-03-04T12:44:24;102553.53;;;9.47;89.79
67840;BME280;54636;51.684;5.142;2023-03-04T12:54:39;102519.16;;;9.57;86.40
67840;BME280;54636;51.684;5.142;2023-03-04T12:57:12;102530.34;;;9.59;86.68
67840;BME280;54636;51.684;5.142;2023-03-04T13:07:58;102522.06;;;8.79;89.20
67840;BME280;54636;51.684;5.142;2023-03-04T13:10:26;102523.25;;;8.62;90.30
67840;BME280;54636;51.684;5.142;2023-03-04T13:12:54;102522.00;;;8.50;88.57
67840;BME280;54636;51.684;5.142;2023-03-04T13:23:30;102521.06;;;7.72;97.03
67840;BME280;54636;51.684;5.142;2023-03-04T13:28:24;102517.34;;;7.46;100.00
67840;BME280;54636;51.684;5.142;2023-03-04T13:43:45;102515.81;;;7.06;100.00
67840;BME280;54636;51.684;5.142;2023-03-04T13:48:56;102502.88;;;6.74;100.00
67840;BME280;54636;51.684;5.142;2023-03-04T13:51:33;102522.88;;;6.76;100.00
67840;BME280;54636;51.684;5.142;2023-03-04T14:04:28;102509.72;;;6.78;100.00
67840;BME280;54636;51.684;5.142;2023-03-04T14:06:56;102501.22;;;6.80;100.00
67840;BME280;54636;51.684;5.142;2023-03-04T14:09:30;102496.44;;;6.87;100.00
67840;BME280;54636;51.684;5.142;2023-03-04T14:12:13;102509.28;;;7.03;100.00
67840;BME280;54636;51.684;5.142;2023-03-04T14:14:49;102501.31;;;6.96;100.00
67840;BME280;54636;51.684;5.142;2023-03-04T14:17:35;102483.66;;;6.91;100.00
67840;BME280;54636;51.684;5.142;2023-03-04T14:20:06;102493.44;;;7.05;100.00
67840;BME280;54636;51.684;5.142;2023-03-04T14:22:45;102486.38;;;7.11;100.00
67840;BME280;54636;51.684;5.142;2023-03-04T14:27:39;102485.03;;;7.39;100.00
67840;BME280;54636;51.684;5.142;2023-03-04T14:30:17;102480.31;;;7.43;100.00
67840;BME280;54636;51.684;5.142;2023-03-04T14:32:43;102478.91;;;7.55;100.00
67840;BME280;54636;51.684;5.142;2023-03-04T14:35:32;102482.47;;;7.52;100.00
67840;BME280;54636;51.684;5.142;2023-03-04T14:38:04;102459.09;;;7.42;100.00
67840;BME280;54636;51.684;5.142;2023-03-04T14:40:35;102476.47;;;7.60;100.00
67840;BME280;54636;51.684;5.142;2023-03-04T14:43:13;102473.22;;;7.69;100.00
67840;BME280;54636;51.684;5.142;2023-03-04T14:45:41;102469.25;;;7.74;100.00
67840;BME280;54636;51.684;5.142;2023-03-04T14:48:07;102469.06;;;7.81;98.71
67840;BME280;54636;51.684;5.142;2023-03-04T14:50:33;102462.41;;;7.85;98.77
67840;BME280;54636;51.684;5.142;2023-03-04T14:55:33;102463.44;;;8.08;95.28
67840;BME280;54636;51.684;5.142;2023-03-04T14:58:07;102469.69;;;8.05;94.78
67840;BME280;54636;51.684;5.142;2023-03-04T15:00:35;102436.94;;;7.83;95.05
67840;BME280;54636;51.684;5.142;2023-03-04T15:03:18;102452.59;;;7.75;93.57
67840;BME280;54636;51.684;5.142;2023-03-04T15:05:45;102456.56;;;7.71;95.89
67840;BME280;54636;51.684;5.142;2023-03-04T15:08:20;102453.84;;;7.71;94.44
67840;BME280;54636;51.684;5.142;2023-03-04T15:10:58;102428.88;;;7.47;94.76
67840;BME280;54636;51.684;5.142;2023-03-04T15:13:44;102442.50;;;7.59;94.83